Time;durP1;ratioP1;P1;durP2;ratioP2;P2;SDS_P1;SDS_P2;PMS_P1;PMS_P2;Temp;Humidity;BMP_temperature;BMP_pressure;BME280_temperature;BME280_humidity;BME280_pressure;Samples;Min_cycle;Max_cycle;Signal;HPM_P1;HPM_P2
2022/07/18 00:01:25;;;;;;;10.38;8.48;;;16.70;99.90;;;;;;4945444;28;89770;-33
2022/07/18 00:03:50;;;;;;;10.55;8.70;;;16.70;99.90;;;;;;4945257;28;90596;-30
2022/07/18 00:06:16;;;;;;;10.63;8.00;;;16.70;99.90;;;;;;4944838;28;90471;-31
2022/07/18 00:08:41;;;;;;;9.23;7.22;;;16.70;99.90;;;;;;4982870;22;89163;-31
2022/07/18 00:11:07;;;;;;;10.70;9.15;;;16.70;99.90;;;;;;4945236;28;89991;-31
2022/07/18 00:13:33;;;;;;;8.27;6.93;;;16.70;99.90;;;;;;4943642;28;90111;-34
2022/07/18 00:15:58;;;;;;;11.55;7.07;;;16.60;99.90;;;;;;4945225;28;90237;-36
2022/07/18 00:18:24;;;;;;;9.23;6.65;;;16.70;99.90;;;;;;4945600;28;88741;-33
2022/07/18 00:20:50;;;;;;;9.85;7.75;;;16.60;99.90;;;;;;4946145;28;90335;-33
2022/07/18 00:23:15;;;;;;;9.27;7.18;;;16.60;99.90;;;;;;4943559;28;91222;-31
2022/07/18 00:25:41;;;;;;;9.95;6.60;;;16.60;99.90;;;;;;4941716;28;89603;-32
2022/07/18 00:28:06;;;;;;;8.65;7.75;;;16.60;99.90;;;;;;4941657;28;88859;-32
2022/07/18 00:30:32;;;;;;;16.15;8.02;;;16.60;99.90;;;;;;4942936;28;90507;-32
2022/07/18 00:32:58;;;;;;;7.57;6.03;;;16.60;99.90;;;;;;4942088;28;89533;-32
2022/07/18 00:35:23;;;;;;;8.55;7.43;;;16.60;99.90;;;;;;4941654;28;88661;-33
2022/07/18 00:37:49;;;;;;;8.52;6.75;;;16.60;99.90;;;;;;4942384;28;89402;-31
2022/07/18 00:40:14;;;;;;;8.18;7.38;;;16.60;99.90;;;;;;4941565;28;89163;-31
2022/07/18 00:42:40;;;;;;;13.68;7.28;;;16.60;99.90;;;;;;4942870;28;89573;-30
2022/07/18 00:45:06;;;;;;;8.73;7.57;;;16.60;99.90;;;;;;4941763;28;89542;-31
2022/07/18 00:47:32;;;;;;;15.48;6.75;;;16.60;99.90;;;;;;4942042;28;88359;-32
2022/07/18 00:49:57;;;;;;;11.00;7.85;;;16.60;99.90;;;;;;4942123;28;89186;-30
2022/07/18 00:52:23;;;;;;;9.43;8.27;;;16.50;99.90;;;;;;4940897;28;90537;-29
2022/07/18 00:54:49;;;;;;;10.23;7.93;;;16.50;99.90;;;;;;4941933;28;91639;-33
2022/07/18 00:57:14;;;;;;;8.75;7.35;;;16.50;99.90;;;;;;4941548;28;87644;-31
2022/07/18 01:02:26;;;;;;;8.32;6.88;;;16.40;99.90;;;;;;4942038;28;90049;-31
2022/07/18 01:04:52;;;;;;;9.93;6.93;;;16.50;99.90;;;;;;4941162;28;90429;-29
2022/07/18 01:07:17;;;;;;;8.93;7.30;;;16.50;99.90;;;;;;4942463;28;88647;-32
2022/07/18 01:09:43;;;;;;;10.75;7.07;;;16.50;99.90;;;;;;4941316;28;90008;-33
2022/07/18 01:12:09;;;;;;;8.80;7.72;;;16.50;99.90;;;;;;4941028;28;90255;-33
2022/07/18 01:14:35;;;;;;;8.73;7.85;;;16.40;99.90;;;;;;4941781;28;90012;-31
2022/07/18 01:17:01;;;;;;;8.35;7.35;;;16.40;99.90;;;;;;4940497;28;88725;-30
2022/07/18 01:19:26;;;;;;;9.38;7.40;;;16.40;99.90;;;;;;4942502;28;90664;-32
2022/07/18 01:21:52;;;;;;;8.60;7.65;;;16.40;99.90;;;;;;4941229;28;90402;-31
2022/07/18 01:24:17;;;;;;;9.60;7.93;;;16.30;99.90;;;;;;4940937;28;89903;-33
2022/07/18 01:26:43;;;;;;;11.52;7.57;;;16.30;99.90;;;;;;4941830;28;88264;-31
2022/07/18 01:29:09;;;;;;;9.32;8.05;;;16.20;99.90;;;;;;4940956;28;90443;-31
2022/07/18 01:31:34;;;;;;;11.52;8.48;;;16.20;99.90;;;;;;4941655;28;89253;-30
2022/07/18 01:34:01;;;;;;;13.43;8.45;;;16.10;99.90;;;;;;4940709;28;89677;-31
2022/07/18 01:36:26;;;;;;;9.85;7.85;;;16.00;99.90;;;;;;4940657;28;88393;-32
2022/07/18 01:38:52;;;;;;;8.95;7.13;;;16.00;99.90;;;;;;4941213;28;90456;-32
2022/07/18 01:41:17;;;;;;;10.43;8.30;;;16.00;99.90;;;;;;4940402;28;91037;-32
2022/07/18 01:43:44;;;;;;;8.25;7.07;;;15.90;99.90;;;;;;4941927;28;91871;-32
2022/07/18 01:46:10;;;;;;;14.20;7.50;;;15.90;99.90;;;;;;4940837;28;89551;-33
2022/07/18 01:48:40;;;;;;;10.32;7.72;;;15.90;99.90;;;;;;4941526;28;90298;-32
2022/07/18 01:51:10;;;;;;;10.88;8.27;;;15.90;99.90;;;;;;4941041;28;89715;-32
2022/07/18 01:53:40;;;;;;;9.55;7.13;;;15.80;99.90;;;;;;4940984;28;90076;-34
2022/07/18 01:56:06;;;;;;;13.43;8.85;;;15.80;99.90;;;;;;4941488;28;89951;-30
2022/07/18 01:58:32;;;;;;;7.65;6.78;;;15.80;99.90;;;;;;4941171;28;90144;-30
2022/07/18 02:00:58;;;;;;;11.13;7.60;;;15.80;99.90;;;;;;4940606;28;88656;-31
2022/07/18 02:03:23;;;;;;;11.43;9.55;;;15.80;99.90;;;;;;4941446;28;89855;-33
2022/07/18 02:05:49;;;;;;;10.90;7.90;;;15.80;99.90;;;;;;4940231;28;89293;-30
2022/07/18 02:08:15;;;;;;;14.57;8.43;;;15.80;99.90;;;;;;4940146;28;90697;-33
2022/07/18 02:10:41;;;;;;;13.27;8.10;;;15.80;99.90;;;;;;4940749;28;89740;-30
2022/07/18 02:13:06;;;;;;;10.05;8.23;;;15.70;99.90;;;;;;4940121;28;89381;-32
2022/07/18 02:15:32;;;;;;;9.57;8.13;;;15.70;99.90;;;;;;4940908;28;89178;-31
2022/07/18 02:17:58;;;;;;;11.25;7.82;;;15.70;99.90;;;;;;4940898;28;90268;-32
2022/07/18 02:20:24;;;;;;;8.98;7.53;;;15.70;99.90;;;;;;4940603;28;89516;-34
2022/07/18 02:22:50;;;;;;;14.57;9.15;;;15.70;99.90;;;;;;4940880;28;89879;-32
2022/07/18 02:25:15;;;;;;;14.70;9.43;;;15.70;99.90;;;;;;4940614;28;88675;-30
2022/07/18 02:27:41;;;;;;;15.00;8.43;;;15.70;99.90;;;;;;4940642;28;90680;-33
2022/07/18 02:30:09;;;;;;;13.55;9.98;;;15.70;99.90;;;;;;4939979;28;91039;-30
2022/07/18 02:32:37;;;;;;;11.98;9.07;;;15.70;99.90;;;;;;4938964;28;90689;-32
2022/07/18 02:35:06;;;;;;;15.60;9.10;;;15.60;99.90;;;;;;4940753;28;88542;-30
2022/07/18 02:37:32;;;;;;;11.68;8.73;;;15.60;99.90;;;;;;4940477;28;90750;-31
2022/07/18 02:39:58;;;;;;;10.77;8.80;;;15.60;99.90;;;;;;4939903;28;89468;-31
2022/07/18 02:42:23;;;;;;;10.52;8.73;;;15.60;99.90;;;;;;4940158;28;89683;-32
2022/07/18 02:44:49;;;;;;;13.98;9.27;;;15.50;99.90;;;;;;4940613;28;90004;-30
2022/07/18 02:47:14;;;;;;;11.98;8.80;;;15.50;99.90;;;;;;4939240;28;91003;-31
2022/07/18 02:49:40;;;;;;;10.75;9.25;;;15.60;99.90;;;;;;4940785;28;89066;-31
2022/07/18 02:52:08;;;;;;;10.43;8.35;;;15.50;99.90;;;;;;4938807;28;89613;-33
2022/07/18 02:54:35;;;;;;;12.18;9.27;;;15.50;99.90;;;;;;4939777;28;89553;-34
2022/07/18 02:57:02;;;;;;;15.07;9.00;;;15.50;99.90;;;;;;4939852;28;90090;-34
2022/07/18 02:59:27;;;;;;;9.32;7.95;;;15.50;99.90;;;;;;4940263;28;91132;-31
2022/07/18 03:01:54;;;;;;;14.45;9.85;;;15.40;99.90;;;;;;4939522;28;89757;-31
2022/07/18 03:04:21;;;;;;;11.45;8.07;;;15.40;99.90;;;;;;4939933;28;88117;-32
2022/07/18 03:06:48;;;;;;;12.07;8.52;;;15.30;99.90;;;;;;4939789;28;90158;-32
2022/07/18 03:09:14;;;;;;;9.55;8.48;;;15.30;99.90;;;;;;4939546;28;89684;-31
2022/07/18 03:11:39;;;;;;;10.38;7.55;;;15.20;99.90;;;;;;4940135;28;89701;-31
2022/07/18 03:14:05;;;;;;;8.00;7.30;;;15.20;99.90;;;;;;4939892;28;88825;-31
2022/07/18 03:16:31;;;;;;;16.80;8.00;;;15.20;99.90;;;;;;4939893;28;90441;-30
2022/07/18 03:18:57;;;;;;;9.85;7.85;;;15.10;99.90;;;;;;4939887;28;90580;-32
2022/07/18 03:21:22;;;;;;;11.80;9.30;;;15.10;99.90;;;;;;4938600;28;90012;-29
2022/07/18 03:23:48;;;;;;;12.25;9.20;;;15.00;99.90;;;;;;4940974;28;88193;-30
2022/07/18 03:26:14;;;;;;;10.82;9.70;;;15.00;99.90;;;;;;4939422;28;90020;-32
2022/07/18 03:28:39;;;;;;;11.43;8.18;;;14.90;99.90;;;;;;4939636;28;89745;-34
2022/07/18 03:31:05;;;;;;;9.23;8.32;;;14.80;99.90;;;;;;4939565;28;89602;-32
2022/07/18 03:33:31;;;;;;;9.50;7.57;;;14.80;99.90;;;;;;4939493;28;89099;-33
2022/07/18 03:35:57;;;;;;;12.10;8.32;;;14.80;99.90;;;;;;4940475;28;90243;-32
2022/07/18 03:38:22;;;;;;;11.77;9.20;;;14.70;99.90;;;;;;4938785;28;89336;-34
2022/07/18 03:40:48;;;;;;;13.32;9.82;;;14.70;99.90;;;;;;4939537;28;89488;-31
2022/07/18 03:43:14;;;;;;;11.48;9.57;;;14.60;99.90;;;;;;4938489;28;89194;-32
2022/07/18 03:45:39;;;;;;;10.23;7.90;;;14.60;99.90;;;;;;4939574;28;90112;-31
2022/07/18 03:48:05;;;;;;;11.55;8.93;;;14.60;99.90;;;;;;4939767;28;90809;-30
2022/07/18 03:50:31;;;;;;;11.27;10.13;;;14.60;99.90;;;;;;4939030;28;89505;-32
2022/07/18 03:52:56;;;;;;;13.52;9.57;;;14.70;99.90;;;;;;4938805;28;89743;-31
2022/07/18 03:55:22;;;;;;;11.88;8.95;;;14.70;99.90;;;;;;4938559;28;91076;-31
2022/07/18 03:57:48;;;;;;;12.15;9.07;;;14.70;99.90;;;;;;4939446;28;89687;-33
2022/07/18 04:00:15;;;;;;;12.35;10.38;;;14.80;99.90;;;;;;4941691;28;89557;-30
2022/07/18 04:02:46;;;;;;;9.98;8.95;;;14.80;99.90;;;;;;4942242;28;89662;-31
2022/07/18 04:05:13;;;;;;;12.32;9.35;;;14.80;99.90;;;;;;4941886;28;90399;-31
2022/07/18 04:07:39;;;;;;;14.48;9.27;;;14.80;99.90;;;;;;4941800;28;90020;-34
2022/07/18 04:10:06;;;;;;;12.55;9.27;;;14.80;99.90;;;;;;4942709;28;90071;-32
2022/07/18 04:12:32;;;;;;;12.20;10.10;;;14.80;99.90;;;;;;4942772;28;88260;-32
2022/07/18 04:14:58;;;;;;;11.30;9.48;;;14.90;99.90;;;;;;4941884;28;90264;-32
2022/07/18 04:17:24;;;;;;;9.65;8.65;;;14.80;99.90;;;;;;4942429;28;89582;-31
2022/07/18 04:19:50;;;;;;;11.93;9.93;;;14.90;99.90;;;;;;4942603;28;88774;-32
2022/07/18 04:22:16;;;;;;;9.52;7.95;;;14.90;99.90;;;;;;4942926;28;90374;-31
2022/07/18 04:24:41;;;;;;;10.13;8.30;;;14.90;99.90;;;;;;4942821;28;90396;-30
2022/07/18 04:27:07;;;;;;;11.23;9.68;;;14.90;99.90;;;;;;4942255;28;89598;-31
2022/07/18 04:29:32;;;;;;;11.13;8.75;;;14.90;99.90;;;;;;4942741;28;89080;-30
2022/07/18 04:31:58;;;;;;;11.50;8.57;;;14.80;99.90;;;;;;4941691;28;90087;-30
2022/07/18 04:34:24;;;;;;;11.80;8.68;;;14.80;99.90;;;;;;4942629;28;90391;-33
2022/07/18 04:36:50;;;;;;;12.77;9.65;;;14.90;99.90;;;;;;4941785;28;89785;-32
2022/07/18 04:39:16;;;;;;;11.45;8.77;;;14.90;99.90;;;;;;4942433;28;90099;-34
2022/07/18 04:41:43;;;;;;;12.38;9.57;;;15.00;99.90;;;;;;4942262;28;90023;-32
2022/07/18 04:44:08;;;;;;;17.48;9.32;;;15.10;99.90;;;;;;4941473;28;90315;-32
2022/07/18 04:46:34;;;;;;;14.32;10.00;;;15.20;99.90;;;;;;4942212;28;89873;-30
2022/07/18 04:49:00;;;;;;;13.98;9.75;;;15.40;99.90;;;;;;4942229;28;89568;-31
2022/07/18 04:51:25;;;;;;;15.82;10.07;;;15.40;99.90;;;;;;4942565;28;88810;-34
2022/07/18 04:53:52;;;;;;;18.10;10.63;;;15.60;99.90;;;;;;4941284;28;89615;-30
2022/07/18 04:56:18;;;;;;;16.25;9.55;;;15.70;99.90;;;;;;4940190;28;90649;-33
2022/07/18 04:58:43;;;;;;;10.18;7.88;;;15.80;99.90;;;;;;4942049;28;90333;-32
2022/07/18 05:01:09;;;;;;;10.93;8.05;;;15.90;99.90;;;;;;4942380;28;88454;-31
2022/07/18 05:03:34;;;;;;;13.90;9.07;;;15.90;99.90;;;;;;4941536;28;90948;-31
2022/07/18 05:06:00;;;;;;;13.60;9.00;;;15.90;99.90;;;;;;4941614;28;91326;-32
2022/07/18 05:08:25;;;;;;;9.50;7.45;;;15.90;99.90;;;;;;4940423;28;89240;-32
2022/07/18 05:10:51;;;;;;;18.35;8.20;;;15.90;99.90;;;;;;4941860;28;88308;-34
2022/07/18 05:13:17;;;;;;;20.77;9.43;;;15.90;99.90;;;;;;4940432;28;89921;-34
2022/07/18 05:15:42;;;;;;;14.70;7.38;;;16.00;99.90;;;;;;4940840;28;90470;-31
2022/07/18 05:18:08;;;;;;;11.88;7.95;;;16.00;99.90;;;;;;4940421;28;90228;-32
2022/07/18 05:20:35;;;;;;;15.50;8.02;;;16.00;99.90;;;;;;4941363;28;89595;-33
2022/07/18 05:23:00;;;;;;;11.65;8.25;;;16.00;99.90;;;;;;4940684;28;90355;-32
2022/07/18 05:25:26;;;;;;;9.30;6.60;;;16.10;99.90;;;;;;4941233;28;89486;-31
2022/07/18 05:27:52;;;;;;;11.38;7.35;;;16.20;99.90;;;;;;4941175;28;89690;-32
2022/07/18 05:30:19;;;;;;;12.82;8.07;;;16.30;99.90;;;;;;4941445;28;88494;-31
2022/07/18 05:32:45;;;;;;;11.77;7.55;;;16.40;99.90;;;;;;4939165;28;90253;-34
2022/07/18 05:35:11;;;;;;;6.88;6.00;;;16.40;99.90;;;;;;4941463;28;89906;-31
2022/07/18 05:37:37;;;;;;;9.90;5.78;;;16.50;99.90;;;;;;4942023;28;89403;-32
2022/07/18 05:40:08;;;;;;;11.77;5.75;;;16.60;99.90;;;;;;4941288;28;89745;-35
2022/07/18 05:42:34;;;;;;;8.82;7.53;;;16.80;99.90;;;;;;4940330;28;90118;-33
2022/07/18 05:44:59;;;;;;;8.52;5.88;;;16.80;99.90;;;;;;4939971;28;90385;-31
2022/07/18 05:47:25;;;;;;;8.55;5.13;;;16.90;99.90;;;;;;4941211;28;90281;-30
2022/07/18 05:49:51;;;;;;;11.70;5.80;;;17.00;99.90;;;;;;4941803;28;87986;-34
2022/07/18 05:52:16;;;;;;;8.68;5.28;;;17.00;99.90;;;;;;4940388;28;90000;-31
2022/07/18 05:54:42;;;;;;;7.82;4.47;;;17.10;99.90;;;;;;4940761;28;88943;-34
2022/07/18 05:57:08;;;;;;;6.05;4.70;;;17.20;99.90;;;;;;4940737;28;89227;-30
2022/07/18 05:59:33;;;;;;;6.85;4.90;;;17.30;99.90;;;;;;4939268;28;89210;-32
2022/07/18 06:01:59;;;;;;;6.60;4.85;;;17.40;99.90;;;;;;4939334;28;90690;-34
2022/07/18 06:04:25;;;;;;;5.32;4.10;;;17.50;99.90;;;;;;4937848;28;89646;-30
2022/07/18 06:06:50;;;;;;;9.32;4.05;;;17.70;99.90;;;;;;4938464;28;89448;-34
2022/07/18 06:09:17;;;;;;;5.15;4.35;;;17.90;99.90;;;;;;4937051;28;90650;-32
2022/07/18 06:11:42;;;;;;;10.50;5.28;;;18.10;99.90;;;;;;4935670;28;90523;-32
2022/07/18 06:14:08;;;;;;;39.22;8.55;;;18.20;99.90;;;;;;4939135;28;90069;-30
2022/07/18 06:16:36;;;;;;;10.13;5.00;;;18.20;99.90;;;;;;4937564;28;90391;-32
2022/07/18 06:19:02;;;;;;;8.95;4.03;;;18.20;99.90;;;;;;4937836;28;89302;-33
2022/07/18 06:21:28;;;;;;;10.43;4.72;;;18.30;99.90;;;;;;4937621;28;90146;-30
2022/07/18 06:23:54;;;;;;;40.50;7.82;;;18.30;99.90;;;;;;4938095;28;89966;-33
2022/07/18 06:26:20;;;;;;;4.85;3.83;;;18.40;99.90;;;;;;4938614;28;89856;-33
2022/07/18 06:28:46;;;;;;;6.10;3.97;;;18.60;99.90;;;;;;4938604;28;89074;-31
2022/07/18 06:31:14;;;;;;;4.82;3.70;;;18.60;99.90;;;;;;4937899;28;90351;-32
2022/07/18 06:33:40;;;;;;;7.22;4.00;;;18.80;99.90;;;;;;4935932;28;90269;-32
2022/07/18 06:36:06;;;;;;;10.25;4.50;;;18.80;99.90;;;;;;4937385;28;91100;-33
2022/07/18 06:38:32;;;;;;;59.28;10.23;;;18.90;99.90;;;;;;4937633;28;88580;-33
2022/07/18 06:40:58;;;;;;;15.52;4.35;;;19.10;99.90;;;;;;4937645;28;90791;-32
2022/07/18 06:43:23;;;;;;;6.50;3.78;;;19.20;99.90;;;;;;4937470;28;88897;-30
2022/07/18 06:45:51;;;;;;;9.65;3.13;;;19.30;99.90;;;;;;4938261;28;89595;-33
2022/07/18 06:48:17;;;;;;;8.43;3.00;;;19.40;99.90;;;;;;4938590;28;88581;-35
2022/07/18 06:50:43;;;;;;;4.03;2.95;;;19.50;99.90;;;;;;4938255;28;90224;-34
2022/07/18 06:53:09;;;;;;;9.95;2.92;;;19.70;99.90;;;;;;4936822;28;89703;-30
2022/07/18 06:55:35;;;;;;;4.18;3.40;;;19.90;99.90;;;;;;4937740;28;89447;-33
2022/07/18 06:58:01;;;;;;;17.27;4.15;;;20.00;99.90;;;;;;4937426;28;89080;-33
2022/07/18 07:00:26;;;;;;;12.73;3.40;;;20.10;99.90;;;;;;4938752;28;90517;-30
2022/07/18 07:02:52;;;;;;;6.47;3.70;;;20.20;99.90;;;;;;4937925;28;89277;-31
2022/07/18 07:05:19;;;;;;;4.13;2.60;;;20.40;99.90;;;;;;4936888;28;89984;-33
2022/07/18 07:07:45;;;;;;;4.03;3.63;;;20.60;99.90;;;;;;4937747;28;88587;-34
2022/07/18 07:10:11;;;;;;;3.95;2.92;;;20.90;99.90;;;;;;4937371;28;90155;-33
2022/07/18 07:12:50;;;;;;;5.28;2.63;;;21.10;99.90;;;;;;4937584;28;88300;-34
2022/07/18 07:15:18;;;;;;;5.43;2.72;;;21.40;99.90;;;;;;4937269;28;89989;-31
2022/07/18 07:17:44;;;;;;;5.50;2.65;;;21.70;99.90;;;;;;4938377;28;89369;-32
2022/07/18 07:20:10;;;;;;;5.43;3.00;;;22.10;99.90;;;;;;4937457;28;90462;-33
2022/07/18 07:22:48;;;;;;;3.50;2.70;;;22.40;99.90;;;;;;4936757;28;90171;-32
2022/07/18 07:25:15;;;;;;;7.00;2.87;;;22.70;99.90;;;;;;4938000;28;90493;-35
2022/07/18 07:27:41;;;;;;;21.67;4.15;;;23.00;99.90;;;;;;4937485;28;88634;-35
2022/07/18 07:30:08;;;;;;;4.47;2.53;;;23.20;99.90;;;;;;4937277;28;89319;-30
2022/07/18 07:32:42;;;;;;;6.25;2.05;;;23.40;99.90;;;;;;4937274;28;91109;-36
2022/07/18 07:35:11;;;;;;;5.60;2.30;;;23.60;99.90;;;;;;4941573;28;88217;-32
2022/07/18 07:37:42;;;;;;;3.17;2.00;;;23.80;99.90;;;;;;4941198;28;87487;-32
2022/07/18 07:40:09;;;;;;;6.32;2.55;;;24.20;99.90;;;;;;4940372;28;90219;-32
2022/07/18 07:42:34;;;;;;;4.85;2.15;;;24.50;89.80;;;;;;4940249;28;89814;-32
2022/07/18 07:45:00;;;;;;;5.07;2.90;;;24.70;85.80;;;;;;4940981;28;89668;-32
2022/07/18 07:47:25;;;;;;;9.98;2.80;;;25.00;77.60;;;;;;4938876;28;89614;-33
2022/07/18 07:49:52;;;;;;;10.27;2.72;;;25.10;73.00;;;;;;4937218;28;90202;-32
2022/07/18 07:52:18;;;;;;;10.45;2.63;;;25.30;72.10;;;;;;4939726;28;89360;-33
2022/07/18 07:54:47;;;;;;;4.72;1.85;;;25.50;70.20;;;;;;4939246;28;89470;-32
2022/07/18 07:57:13;;;;;;;3.67;2.25;;;25.70;64.30;;;;;;4940084;28;89874;-32
2022/07/18 07:59:39;;;;;;;3.30;2.42;;;25.70;61.60;;;;;;4940444;28;90382;-33
2022/07/18 08:02:05;;;;;;;3.42;2.22;;;25.80;60.90;;;;;;4940023;28;88723;-33
2022/07/18 08:04:30;;;;;;;37.85;4.68;;;25.90;61.10;;;;;;4939996;28;90074;-33
2022/07/18 08:06:56;;;;;;;15.82;3.28;;;26.10;61.10;;;;;;4940896;28;88362;-32
2022/07/18 08:09:22;;;;;;;2.83;2.05;;;26.20;59.60;;;;;;4938878;28;90713;-32
2022/07/18 08:11:47;;;;;;;5.32;1.95;;;26.30;59.60;;;;;;4939761;28;90817;-32
2022/07/18 08:14:13;;;;;;;10.38;3.33;;;26.20;59.50;;;;;;4939762;28;91717;-32
2022/07/18 08:16:39;;;;;;;7.00;2.55;;;26.10;60.60;;;;;;4941062;28;89345;-32
2022/07/18 08:19:05;;;;;;;5.75;3.40;;;25.90;60.20;;;;;;4939537;28;90229;-32
2022/07/18 08:21:30;;;;;;;6.82;2.53;;;25.80;59.80;;;;;;4939365;28;89715;-35
2022/07/18 08:23:56;;;;;;;1.80;1.65;;;26.00;60.60;;;;;;4940672;28;89521;-32
2022/07/18 08:26:22;;;;;;;35.75;5.72;;;26.10;60.30;;;;;;4940185;28;88142;-32
2022/07/18 08:28:47;;;;;;;5.20;1.98;;;26.30;60.70;;;;;;4940565;28;90193;-34
2022/07/18 08:31:13;;;;;;;2.38;2.15;;;26.50;61.10;;;;;;4939614;28;90064;-34
2022/07/18 08:33:39;;;;;;;9.55;2.72;;;26.60;60.70;;;;;;4940036;28;89525;-32
2022/07/18 08:36:04;;;;;;;4.20;2.65;;;26.70;59.30;;;;;;4939937;28;89846;-33
2022/07/18 08:38:30;;;;;;;5.05;2.80;;;26.70;59.80;;;;;;4939092;28;90277;-34
2022/07/18 08:40:57;;;;;;;12.60;2.92;;;26.70;61.00;;;;;;4939659;28;89770;-32
2022/07/18 08:43:25;;;;;;;9.57;3.40;;;26.90;61.40;;;;;;4939877;28;90434;-32
2022/07/18 08:45:54;;;;;;;7.22;2.95;;;27.00;62.10;;;;;;4939355;28;89343;-33
2022/07/18 08:48:20;;;;;;;3.67;2.33;;;27.20;58.20;;;;;;4938995;28;90446;-31
2022/07/18 08:50:47;;;;;;;3.22;2.47;;;27.30;57.80;;;;;;4939647;28;89073;-34
2022/07/18 08:53:15;;;;;;;2.83;1.63;;;27.40;56.40;;;;;;4939989;28;88599;-32
2022/07/18 08:55:41;;;;;;;3.53;1.90;;;27.30;56.60;;;;;;4939899;28;89834;-34
2022/07/18 08:58:06;;;;;;;4.65;2.58;;;27.30;57.60;;;;;;4939278;28;90046;-35
2022/07/18 09:00:35;;;;;;;6.85;3.10;;;27.40;57.10;;;;;;4938219;28;90670;-33
2022/07/18 09:03:02;;;;;;;7.00;2.08;;;27.50;56.60;;;;;;4938650;28;90947;-35
2022/07/18 09:05:28;;;;;;;;;;;27.60;56.80;;;;;;4942409;28;88496;-31
2022/07/18 09:08:10;;;;;;;8.80;2.58;;;27.70;58.60;;;;;;4941039;28;90193;-34
2022/07/18 09:10:51;;;;;;;7.82;2.30;;;27.90;54.20;;;;;;4937036;28;90220;-32
2022/07/18 09:13:18;;;;;;;2.88;2.33;;;27.80;54.00;;;;;;4938397;28;89904;-33
2022/07/18 09:15:58;;;;;;;2.00;1.80;;;27.70;53.90;;;;;;4939206;28;88783;-32
2022/07/18 09:18:29;;;;;;;2.03;1.80;;;27.80;55.00;;;;;;4939129;28;90194;-33
2022/07/18 09:20:59;;;;;;;3.80;1.92;;;27.90;55.30;;;;;;4938870;28;90201;-34
2022/07/18 09:23:33;;;;;;;4.22;2.13;;;28.00;55.90;;;;;;4939074;28;90480;-32
2022/07/18 09:25:59;;;;;;;5.95;2.08;;;27.90;55.20;;;;;;4939040;28;89453;-36
2022/07/18 09:28:29;;;;;;;6.40;2.03;;;27.80;54.60;;;;;;4939230;28;89982;-32
2022/07/18 09:30:55;;;;;;;4.13;1.90;;;27.60;54.80;;;;;;4939055;28;90115;-32
2022/07/18 09:33:21;;;;;;;5.00;1.85;;;27.50;54.90;;;;;;4938338;28;89922;-34
2022/07/18 09:35:54;;;;;;;2.42;1.98;;;27.30;55.20;;;;;;4939435;28;89068;-34
2022/07/18 09:38:21;;;;;;;5.03;1.90;;;27.40;55.30;;;;;;4937842;28;90958;-33
2022/07/18 09:40:51;;;;;;;;;;;27.50;55.50;;;;;;4940017;28;89711;-33
2022/07/18 09:43:20;;;;;;;2.10;1.63;;;27.60;56.40;;;;;;4940519;28;89564;-34
2022/07/18 09:45:48;;;;;;;2.33;1.65;;;27.80;54.60;;;;;;4939693;28;87941;-32
2022/07/18 09:48:17;;;;;;;2.97;2.03;;;27.90;54.70;;;;;;4937419;28;90703;-33
2022/07/18 09:50:49;;;;;;;1.73;1.40;;;28.00;53.10;;;;;;4938653;28;92228;-32
2022/07/18 09:53:23;;;;;;;3.45;2.05;;;28.20;52.10;;;;;;4938162;28;90332;-33
2022/07/18 09:55:54;;;;;;;5.40;2.33;;;28.30;50.80;;;;;;4939223;28;89654;-32
2022/07/18 09:58:23;;;;;;;3.97;1.83;;;28.30;50.60;;;;;;4938160;28;90348;-34
2022/07/18 10:00:49;;;;;;;3.40;1.75;;;28.40;51.10;;;;;;4938480;28;89648;-33
2022/07/18 10:03:16;;;;;;;3.47;2.30;;;28.40;50.60;;;;;;4938067;28;90197;-34
2022/07/18 10:05:43;;;;;;;15.30;3.47;;;28.50;50.50;;;;;;4939182;28;88695;-33
2022/07/18 10:08:11;;;;;;;9.63;1.95;;;28.50;50.40;;;;;;4938962;28;90134;-32
2022/07/18 10:10:39;;;;;;;7.90;2.20;;;28.50;50.50;;;;;;4937928;28;89113;-31
2022/07/18 10:13:06;;;;;;;6.55;2.30;;;28.50;49.80;;;;;;4938415;28;89749;-33
2022/07/18 10:15:35;;;;;;;2.57;2.10;;;28.40;50.70;;;;;;4938140;28;90455;-32
2022/07/18 10:18:02;;;;;;;8.45;2.15;;;28.50;51.10;;;;;;4938467;28;90190;-34
2022/07/18 10:20:42;;;;;;;6.25;2.38;;;28.70;49.90;;;;;;4939030;28;89598;-31
2022/07/18 10:23:23;;;;;;;2.05;1.55;;;28.90;49.10;;;;;;4938079;28;89350;-34
2022/07/18 10:26:14;;;;;;;11.48;2.35;;;29.00;49.60;;;;;;4938959;28;89580;-33
2022/07/18 10:29:00;;;;;;;4.50;2.35;;;29.00;48.20;;;;;;4938474;28;90155;-35
2022/07/18 10:31:39;;;;;;;7.25;2.72;;;29.10;48.30;;;;;;4930441;28;89596;-34
2022/07/18 10:34:07;;;;;;;9.38;2.78;;;29.00;47.40;;;;;;4938256;28;89622;-35
2022/07/18 10:36:54;;;;;;;5.22;2.67;;;28.80;48.00;;;;;;4938737;28;89864;-34
2022/07/18 10:39:31;;;;;;;3.25;2.10;;;28.80;48.60;;;;;;4937686;28;91935;-33
2022/07/18 10:42:01;;;;;;;;;;;28.80;48.60;;;;;;4937981;28;90613;-34
2022/07/18 10:44:29;;;;;;;2.85;2.30;;;28.70;49.00;;;;;;4938736;28;90416;-33
2022/07/18 10:47:09;;;;;;;6.03;2.38;;;28.60;48.30;;;;;;4937858;28;89923;-33
2022/07/18 10:49:47;;;;;;;3.45;2.50;;;28.60;48.80;;;;;;4937633;28;88907;-35
2022/07/18 10:52:24;;;;;;;9.15;3.08;;;28.60;49.30;;;;;;4937513;28;90116;-34
2022/07/18 10:57:39;;;;;;;4.47;3.00;;;28.70;49.00;;;;;;4939446;28;88470;-32
2022/07/18 11:00:11;;;;;;;10.93;3.47;;;28.80;48.70;;;;;;4938351;28;90375;-35
2022/07/18 11:02:47;;;;;;;4.72;2.88;;;28.90;48.00;;;;;;4937836;28;89400;-32
2022/07/18 11:05:25;;;;;;;3.40;2.83;;;28.70;48.10;;;;;;4938044;28;89784;-33
2022/07/18 11:08:06;;;;;;;3.40;2.88;;;28.70;48.60;;;;;;4936970;28;89618;-33
2022/07/18 11:11:01;;;;;;;10.88;3.67;;;28.80;48.20;;;;;;4937922;28;90470;-31
2022/07/18 11:13:31;;;;;;;13.25;3.45;;;28.90;47.70;;;;;;4936944;28;90143;-34
2022/07/18 11:15:58;;;;;;;4.20;2.63;;;28.90;48.20;;;;;;4937579;28;89518;-32
2022/07/18 11:18:25;;;;;;;;;;;29.00;47.80;;;;;;4938419;28;90554;-33
2022/07/18 11:20:51;;;;;;;5.35;3.42;;;29.10;48.20;;;;;;4938298;28;90155;-33
2022/07/18 11:23:21;;;;;;;15.25;4.40;;;29.10;47.70;;;;;;4937546;28;90204;-33
2022/07/18 11:25:49;;;;;;;6.10;3.42;;;29.10;46.90;;;;;;4938014;28;88525;-33
2022/07/18 11:28:15;;;;;;;;;;;29.10;46.50;;;;;;4937763;28;88472;-33
2022/07/18 11:30:42;;;;;;;3.97;3.58;;;29.10;46.40;;;;;;4939291;28;90279;-33
2022/07/18 11:33:22;;;;;;;4.60;2.83;;;29.00;46.20;;;;;;4936614;28;91086;-33
2022/07/18 11:35:48;;;;;;;6.32;3.08;;;28.90;47.20;;;;;;4937625;28;91002;-33
2022/07/18 11:38:14;;;;;;;3.22;2.95;;;28.90;46.70;;;;;;4937356;28;89939;-33
2022/07/18 11:40:51;;;;;;;11.50;3.25;;;29.10;44.50;;;;;;4935986;28;90291;-34
2022/07/18 11:43:21;;;;;;;4.97;3.13;;;29.20;44.30;;;;;;4937515;28;90034;-34
2022/07/18 11:45:47;;;;;;;6.18;3.22;;;29.30;44.50;;;;;;4937716;28;90980;-33
2022/07/18 11:48:21;;;;;;;4.45;2.95;;;29.40;45.60;;;;;;4937197;28;88371;-33
2022/07/18 11:50:47;;;;;;;8.27;3.53;;;29.50;45.60;;;;;;4936387;28;89800;-32
2022/07/18 11:53:14;;;;;;;12.18;3.70;;;29.60;43.90;;;;;;4935860;28;90436;-33
2022/07/18 11:55:39;;;;;;;4.00;3.10;;;29.50;43.30;;;;;;4937267;28;89826;-34
2022/07/18 11:58:15;;;;;;;6.07;3.17;;;29.60;44.00;;;;;;4936532;28;89758;-34
2022/07/18 12:00:42;;;;;;;9.20;3.65;;;29.60;44.80;;;;;;4937635;28;89108;-34
2022/07/18 12:03:09;;;;;;;3.65;3.22;;;29.60;44.70;;;;;;4936595;28;89655;-33
2022/07/18 12:05:55;;;;;;;3.80;3.10;;;29.50;45.20;;;;;;4937347;28;89724;-35
2022/07/18 12:08:35;;;;;;;4.28;3.55;;;29.60;46.00;;;;;;4969233;23;89304;-32
2022/07/18 12:11:10;;;;;;;4.68;3.30;;;29.70;44.30;;;;;;4923428;28;90536;-33
2022/07/18 12:13:46;;;;;;;8.52;3.42;;;29.70;43.10;;;;;;4926617;28;89640;-33
2022/07/18 12:16:38;;;;;;;6.25;4.07;;;29.70;43.40;;;;;;4924474;28;89466;-33
2022/07/18 12:19:16;;;;;;;3.33;2.80;;;29.70;44.10;;;;;;4927579;28;89030;-33
2022/07/18 12:21:43;;;;;;;4.25;2.90;;;29.70;44.20;;;;;;4933391;28;90593;-34
2022/07/18 12:24:46;;;;;;;6.43;2.88;;;29.70;44.10;;;;;;4938919;28;91359;-34
2022/07/18 12:27:33;;;;;;;16.90;5.47;;;29.60;43.00;;;;;;4940718;28;91201;-32
2022/07/18 12:30:04;;;;;;;5.75;4.05;;;29.40;43.80;;;;;;4940480;28;89800;-36
2022/07/18 12:32:40;;;;;;;9.82;4.32;;;29.40;44.70;;;;;;4940288;28;89658;-34
2022/07/18 12:35:18;;;;;;;5.25;3.35;;;29.30;45.60;;;;;;4939241;28;89659;-35
2022/07/18 12:37:56;;;;;;;5.50;3.65;;;29.40;45.60;;;;;;4939769;28;90079;-35
2022/07/18 12:40:23;;;;;;;21.00;5.20;;;29.40;45.40;;;;;;4939849;28;88897;-32
2022/07/18 12:43:00;;;;;;;9.85;4.63;;;29.40;45.30;;;;;;4940645;28;90232;-33
2022/07/18 12:45:26;;;;;;;4.80;3.53;;;29.40;45.70;;;;;;4940122;28;89431;-35
2022/07/18 12:47:51;;;;;;;5.35;2.83;;;29.40;45.20;;;;;;4939283;28;90168;-31
2022/07/18 12:50:17;;;;;;;3.63;3.30;;;29.40;45.50;;;;;;4939160;28;89280;-31
2022/07/18 12:52:42;;;;;;;27.13;4.85;;;29.30;45.80;;;;;;4939399;28;90125;-35